Terminal Aerodrome Forecast
Issued by NWS Billings, MT

Home | Current Version | Previous Version | Graphics & Text | Print | Product List | Glossary On
Versions: 1 2 3 4 5 6 7 8 9 10 11 12 13 14 15 16 17 18 19 20 21 22 23 24
747
FTUS45 KBYZ 272325
TAFMLS
TAF
KMLS 272325Z 2800/2824 VRB05KT 6SM -SHRA SCT030 BKN050
     FM280300 04008KT P6SM VCSH BKN080
     FM281100 33010KT 6SM -SHRASN SCT030 BKN070
     FM282000 32013KT 3SM -SHRA SCT015 BKN035=

USA.gov is the U.S. government's official web portal to all federal, state and local government web resources and services.